createdAt,value
2023-08-27T00:01:54.657Z,16.66
2023-08-27T00:04:22.359Z,16.60
2023-08-27T00:06:51.996Z,16.66
2023-08-27T00:09:19.711Z,16.66
2023-08-27T00:11:47.813Z,16.63
2023-08-27T00:14:15.527Z,16.64
2023-08-27T00:16:43.634Z,16.62
2023-08-27T00:19:11.505Z,16.58
2023-08-27T00:21:39.598Z,16.59
2023-08-27T00:24:09.667Z,16.57
2023-08-27T00:26:37.691Z,16.48
2023-08-27T00:29:05.925Z,16.55
2023-08-27T00:31:34.317Z,16.49
2023-08-27T00:34:02.080Z,16.43
2023-08-27T00:36:30.169Z,16.40
2023-08-27T00:38:57.872Z,16.37
2023-08-27T00:41:27.332Z,16.29
2023-08-27T00:43:55.030Z,16.22
2023-08-27T00:46:23.201Z,16.18
2023-08-27T00:48:51.293Z,16.09
2023-08-27T00:51:19.404Z,16.01
2023-08-27T00:53:47.296Z,15.99
2023-08-27T00:56:15.113Z,16.01
2023-08-27T00:58:44.862Z,15.99
2023-08-27T01:01:13.255Z,15.96
2023-08-27T01:03:41.625Z,15.95
2023-08-27T01:06:09.427Z,15.84
2023-08-27T01:08:50.155Z,15.87
2023-08-27T01:11:26.994Z,15.85
2023-08-27T01:13:59.324Z,15.81
2023-08-27T01:16:29.548Z,15.86
2023-08-27T01:19:01.467Z,15.94
2023-08-27T01:21:30.624Z,16.02
2023-08-27T01:23:58.602Z,16.07
2023-08-27T01:26:34.270Z,16.10
2023-08-27T01:29:07.939Z,16.11
2023-08-27T01:31:45.551Z,16.09
2023-08-27T01:34:15.346Z,16.00
2023-08-27T01:36:45.598Z,15.93
2023-08-27T01:39:15.437Z,15.85
2023-08-27T01:41:43.213Z,15.81
2023-08-27T01:44:11.344Z,15.82
2023-08-27T01:46:39.120Z,15.87
2023-08-27T01:49:07.429Z,15.93
2023-08-27T01:51:35.161Z,15.98
2023-08-27T01:54:04.478Z,16.00
2023-08-27T01:56:32.542Z,15.96
2023-08-27T01:59:00.267Z,15.98
2023-08-27T02:01:28.403Z,15.96
2023-08-27T02:03:56.173Z,16.02
2023-08-27T02:06:24.204Z,16.03
2023-08-27T02:08:51.951Z,16.05
2023-08-27T02:11:21.425Z,16.03
2023-08-27T02:13:49.156Z,15.99
2023-08-27T02:16:17.145Z,15.91
2023-08-27T02:18:44.834Z,15.88
2023-08-27T02:21:12.854Z,15.82
2023-08-27T02:23:40.559Z,15.85
2023-08-27T02:26:08.682Z,15.94
2023-08-27T02:28:37.761Z,15.91
2023-08-27T02:31:06.906Z,15.81
2023-08-27T02:33:34.640Z,15.73
2023-08-27T02:36:02.744Z,15.78
2023-08-27T02:38:30.953Z,15.87
2023-08-27T02:40:59.208Z,15.85
2023-08-27T02:43:26.930Z,15.90
2023-08-27T02:45:56.567Z,15.92
2023-08-27T02:48:24.326Z,15.89
2023-08-27T02:50:52.657Z,15.86
2023-08-27T02:53:20.344Z,15.87
2023-08-27T02:55:48.462Z,15.84
2023-08-27T02:58:16.213Z,15.78
2023-08-27T03:00:44.521Z,15.72
2023-08-27T03:03:13.648Z,15.74
2023-08-27T03:05:41.692Z,15.76
2023-08-27T03:08:09.518Z,15.70
2023-08-27T03:10:37.186Z,15.68
2023-08-27T03:13:05.654Z,15.72
2023-08-27T03:15:33.367Z,15.66
2023-08-27T03:18:01.640Z,15.60
2023-08-27T03:20:30.856Z,15.61
2023-08-27T03:22:58.993Z,15.62
2023-08-27T03:25:27.067Z,15.54
2023-08-27T03:27:55.129Z,15.49
2023-08-27T03:30:22.807Z,15.50
2023-08-27T03:32:50.947Z,15.39
2023-08-27T03:35:18.743Z,15.32
2023-08-27T03:37:48.163Z,15.39
2023-08-27T03:40:15.826Z,15.38
2023-08-27T03:42:43.892Z,15.34
2023-08-27T03:45:12.337Z,15.34
2023-08-27T03:47:40.433Z,15.33
2023-08-27T03:50:09.049Z,15.33
2023-08-27T03:52:37.219Z,15.36
2023-08-27T03:55:07.348Z,15.39
2023-08-27T03:57:35.076Z,15.36
2023-08-27T04:00:04.482Z,15.31
2023-08-27T04:02:32.554Z,15.33
2023-08-27T04:05:00.264Z,15.34
2023-08-27T04:07:28.471Z,15.38
2023-08-27T04:09:56.280Z,15.36
2023-08-27T04:12:25.858Z,15.39
2023-08-27T04:14:53.591Z,15.32
2023-08-27T04:17:21.348Z,15.26
2023-08-27T04:19:49.462Z,15.25
2023-08-27T04:22:17.242Z,15.30
2023-08-27T04:24:45.409Z,15.30
2023-08-27T04:27:13.202Z,15.23
2023-08-27T04:29:42.658Z,15.24
2023-08-27T04:32:10.390Z,15.26
2023-08-27T04:34:38.502Z,15.34
2023-08-27T04:37:06.235Z,15.38
2023-08-27T04:39:34.306Z,15.37
2023-08-27T04:42:02.043Z,15.34
2023-08-27T04:44:30.361Z,15.32
2023-08-27T04:46:59.402Z,15.38
2023-08-27T04:49:27.620Z,15.35
2023-08-27T04:51:55.366Z,15.32
2023-08-27T04:54:23.331Z,15.30
2023-08-27T04:56:51.090Z,15.31
2023-08-27T04:59:19.188Z,15.36
2023-08-27T05:01:47.083Z,15.41
2023-08-27T05:04:16.709Z,15.46
2023-08-27T05:06:44.477Z,15.44
2023-08-27T05:09:12.194Z,15.43
2023-08-27T05:11:40.332Z,15.50
2023-08-27T05:14:08.032Z,15.50
2023-08-27T05:16:36.875Z,15.54
2023-08-27T05:19:04.629Z,15.52
2023-08-27T05:21:34.256Z,15.53
2023-08-27T05:24:01.961Z,15.53
2023-08-27T05:26:30.058Z,15.59
2023-08-27T05:28:57.784Z,15.62
2023-08-27T05:31:25.872Z,15.70
2023-08-27T05:33:54.068Z,15.69
2023-08-27T05:36:22.794Z,15.73
2023-08-27T05:38:51.929Z,15.82
2023-08-27T05:41:19.664Z,15.86
2023-08-27T05:43:47.399Z,15.89
2023-08-27T05:46:15.612Z,15.89
2023-08-27T05:48:43.960Z,15.92
2023-08-27T05:51:12.191Z,15.95
2023-08-27T05:53:40.116Z,15.98
2023-08-27T05:56:09.850Z,16.03
2023-08-27T05:58:37.974Z,16.05
2023-08-27T06:01:05.746Z,16.12
2023-08-27T06:03:33.938Z,16.19
2023-08-27T06:06:01.702Z,16.24
2023-08-27T06:08:29.988Z,16.30
2023-08-27T06:10:57.701Z,16.35
2023-08-27T06:13:27.209Z,16.34
2023-08-27T06:15:55.399Z,16.35
2023-08-27T06:18:24.109Z,16.39
2023-08-27T06:20:52.137Z,16.40
2023-08-27T06:23:19.874Z,16.47
2023-08-27T06:25:47.616Z,16.55
2023-08-27T06:28:16.482Z,16.57
2023-08-27T06:30:45.555Z,16.62
2023-08-27T06:33:13.795Z,16.65
2023-08-27T06:35:41.551Z,16.70
2023-08-27T06:38:09.650Z,16.74
2023-08-27T06:40:37.424Z,16.74
2023-08-27T06:43:05.833Z,16.76
2023-08-27T06:45:33.600Z,16.79
2023-08-27T06:48:03.469Z,16.84
2023-08-27T06:50:32.186Z,16.90
2023-08-27T06:53:00.289Z,16.94
2023-08-27T06:55:27.978Z,16.95
2023-08-27T06:57:56.020Z,16.96
2023-08-27T07:00:24.564Z,16.96
2023-08-27T07:02:52.617Z,16.96
2023-08-27T07:05:21.888Z,16.98
2023-08-27T07:07:50.337Z,17.02
2023-08-27T07:10:18.131Z,17.08
2023-08-27T07:12:45.851Z,17.08
2023-08-27T07:15:14.837Z,17.09
2023-08-27T07:17:42.756Z,17.13
2023-08-27T07:20:12.839Z,17.15
2023-08-27T07:22:42.017Z,17.14
2023-08-27T07:25:11.572Z,17.19
2023-08-27T07:27:39.331Z,17.22
2023-08-27T07:30:08.839Z,17.33
2023-08-27T07:32:36.523Z,17.39
2023-08-27T07:35:04.984Z,17.43
2023-08-27T07:37:32.754Z,17.53
2023-08-27T07:40:04.801Z,17.58
2023-08-27T07:42:32.549Z,17.64
2023-08-27T07:45:00.780Z,17.69
2023-08-27T07:47:28.525Z,17.73
2023-08-27T07:49:56.885Z,17.80
2023-08-27T07:52:24.622Z,17.88
2023-08-27T07:54:53.697Z,17.95
2023-08-27T07:57:22.698Z,17.99
2023-08-27T07:59:52.771Z,18.11
2023-08-27T08:02:20.484Z,18.18
2023-08-27T08:04:48.581Z,18.25
2023-08-27T08:07:16.294Z,18.36
2023-08-27T08:09:44.366Z,18.40
2023-08-27T08:12:12.039Z,18.47
2023-08-27T08:14:41.494Z,18.58
2023-08-27T08:17:11.107Z,18.55
2023-08-27T08:19:40.483Z,18.61
2023-08-27T08:22:08.298Z,18.58
2023-08-27T08:24:36.133Z,18.62
2023-08-27T08:27:04.923Z,18.68
2023-08-27T08:29:33.783Z,18.72
2023-08-27T08:32:04.027Z,18.77
2023-08-27T08:34:31.748Z,18.78
2023-08-27T08:37:01.610Z,18.82
2023-08-27T08:39:29.339Z,18.82
2023-08-27T08:42:11.497Z,18.82
2023-08-27T08:44:47.548Z,18.79
2023-08-27T08:47:19.229Z,18.79
2023-08-27T08:49:48.040Z,18.81
2023-08-27T08:52:19.655Z,18.83
2023-08-27T08:54:53.871Z,18.84
2023-08-27T08:57:23.466Z,18.77
2023-08-27T08:59:54.500Z,18.80
2023-08-27T09:02:24.761Z,18.77
2023-08-27T09:04:54.227Z,18.82
2023-08-27T09:07:23.380Z,18.87
2023-08-27T09:09:53.932Z,18.95
2023-08-27T09:12:21.893Z,18.99
2023-08-27T09:14:50.072Z,19.08
2023-08-27T09:17:21.012Z,19.17
2023-08-27T09:19:52.447Z,19.24
2023-08-27T09:22:21.179Z,19.26
2023-08-27T09:24:48.980Z,19.24
2023-08-27T09:27:18.159Z,19.20
2023-08-27T09:29:49.732Z,19.18
2023-08-27T09:32:22.901Z,19.12
2023-08-27T09:34:59.671Z,19.11
2023-08-27T09:37:29.675Z,19.10
2023-08-27T09:39:57.932Z,19.11
2023-08-27T09:42:25.751Z,19.09
2023-08-27T09:44:54.497Z,19.11
2023-08-27T09:47:32.088Z,19.14
2023-08-27T09:50:01.858Z,19.10
2023-08-27T09:52:29.620Z,19.04
2023-08-27T09:54:57.828Z,19.00
2023-08-27T09:57:25.695Z,18.95
2023-08-27T09:59:55.124Z,18.94
2023-08-27T10:02:22.828Z,18.95
2023-08-27T10:04:52.327Z,18.94
2023-08-27T10:07:21.928Z,18.97
2023-08-27T10:09:54.467Z,19.08
2023-08-27T10:12:23.417Z,19.24
2023-08-27T10:14:51.747Z,19.27
2023-08-27T10:17:19.491Z,19.33
2023-08-27T10:19:47.830Z,19.51
2023-08-27T10:22:16.582Z,19.54
2023-08-27T10:24:48.164Z,19.59
2023-08-27T10:27:17.557Z,19.62
2023-08-27T10:29:48.424Z,19.63
2023-08-27T10:32:16.311Z,19.66
2023-08-27T10:34:44.384Z,19.73
2023-08-27T10:37:14.601Z,19.72
2023-08-27T10:39:43.951Z,19.75
2023-08-27T10:42:31.700Z,19.76
2023-08-27T10:45:13.160Z,19.87
2023-08-27T10:47:41.331Z,19.85
2023-08-27T10:50:10.999Z,19.76
2023-08-27T10:52:51.272Z,19.76
2023-08-27T10:55:23.104Z,19.70
2023-08-27T10:57:53.768Z,19.72
2023-08-27T11:00:21.639Z,19.81
2023-08-27T11:03:00.437Z,19.87
2023-08-27T11:05:29.317Z,19.75
2023-08-27T11:08:01.722Z,19.78
2023-08-27T11:10:33.539Z,19.80
2023-08-27T11:13:03.056Z,19.90
2023-08-27T11:15:33.190Z,19.97
2023-08-27T11:18:02.593Z,19.90
2023-08-27T11:20:30.557Z,19.88
2023-08-27T11:23:09.219Z,19.81
2023-08-27T11:25:38.930Z,19.85
2023-08-27T11:28:09.832Z,19.84
2023-08-27T11:30:37.509Z,19.80
2023-08-27T11:33:06.101Z,19.76
2023-08-27T11:35:34.036Z,19.70
2023-08-27T11:38:02.490Z,19.72
2023-08-27T11:40:30.543Z,19.73
2023-08-27T11:42:58.838Z,19.96
2023-08-27T11:45:33.211Z,19.95
2023-08-27T11:48:04.082Z,19.94
2023-08-27T11:50:33.280Z,19.97
2023-08-27T11:53:02.057Z,19.93
2023-08-27T11:55:30.229Z,19.88
2023-08-27T11:57:58.314Z,19.87
2023-08-27T12:00:26.978Z,19.81
2023-08-27T12:02:56.602Z,19.78
2023-08-27T12:05:28.315Z,19.79
2023-08-27T12:07:56.351Z,19.75
2023-08-27T12:10:24.973Z,19.76
2023-08-27T12:12:52.736Z,19.72
2023-08-27T12:15:20.557Z,19.76
2023-08-27T12:17:49.321Z,19.77
2023-08-27T12:20:32.932Z,19.78
2023-08-27T12:23:11.951Z,19.83
2023-08-27T12:25:50.331Z,19.83
2023-08-27T12:28:18.415Z,19.88
2023-08-27T12:30:49.512Z,19.86
2023-08-27T12:33:17.388Z,19.87
2023-08-27T12:35:47.791Z,19.84
2023-08-27T12:38:15.944Z,19.83
2023-08-27T12:40:43.703Z,19.84
2023-08-27T12:43:11.470Z,19.76
2023-08-27T12:45:39.595Z,19.71
2023-08-27T12:48:08.271Z,19.69
2023-08-27T12:50:36.467Z,19.60
2023-08-27T12:53:05.693Z,19.52
2023-08-27T12:55:33.770Z,19.49
2023-08-27T12:58:01.654Z,19.52
2023-08-27T13:00:30.181Z,19.54
2023-08-27T13:02:58.250Z,19.51
2023-08-27T13:05:26.134Z,19.46
2023-08-27T13:07:54.110Z,19.45
2023-08-27T13:10:23.286Z,19.45
2023-08-27T13:12:51.463Z,19.43
2023-08-27T13:15:19.160Z,19.38
2023-08-27T13:17:47.206Z,19.36
2023-08-27T13:20:14.994Z,19.37
2023-08-27T13:22:43.002Z,19.40
2023-08-27T13:25:12.717Z,19.34
2023-08-27T13:27:42.174Z,19.31
2023-08-27T13:30:10.533Z,19.30
2023-08-27T13:32:38.621Z,19.31
2023-08-27T13:35:06.971Z,19.34
2023-08-27T13:37:35.127Z,19.33
2023-08-27T13:40:03.761Z,19.33
2023-08-27T13:42:31.596Z,19.39
2023-08-27T13:45:03.123Z,19.41
2023-08-27T13:47:31.392Z,19.44
2023-08-27T13:49:59.420Z,19.42
2023-08-27T13:52:27.417Z,19.41
2023-08-27T13:54:55.122Z,19.43
2023-08-27T13:57:22.853Z,19.42
2023-08-27T13:59:50.520Z,19.44
2023-08-27T14:02:19.684Z,19.45
2023-08-27T14:04:47.573Z,19.43
2023-08-27T14:07:15.750Z,19.45
2023-08-27T14:09:43.479Z,19.42
2023-08-27T14:12:11.274Z,19.43
2023-08-27T14:14:39.374Z,19.40
2023-08-27T14:17:07.162Z,19.40
2023-08-27T14:19:36.708Z,19.42
2023-08-27T14:22:04.505Z,19.48
2023-08-27T14:24:32.812Z,19.53
2023-08-27T14:27:00.498Z,19.53
2023-08-27T14:29:28.627Z,19.59
2023-08-27T14:31:56.359Z,19.52
2023-08-27T14:34:25.346Z,19.45
2023-08-27T14:36:55.711Z,19.38
2023-08-27T14:39:23.787Z,19.39
2023-08-27T14:41:51.595Z,19.42
2023-08-27T14:44:21.081Z,19.40
2023-08-27T14:46:48.909Z,19.39
2023-08-27T14:49:17.070Z,19.32
2023-08-27T14:51:44.775Z,19.30
2023-08-27T14:54:14.165Z,19.29
2023-08-27T14:56:42.274Z,19.30
2023-08-27T14:59:40.564Z,19.38
2023-08-27T15:02:10.628Z,19.26
2023-08-27T15:04:38.962Z,19.15
2023-08-27T15:07:06.756Z,19.14
2023-08-27T15:09:36.636Z,19.10
2023-08-27T15:12:05.130Z,19.11
2023-08-27T15:14:33.746Z,19.12
2023-08-27T15:17:01.495Z,19.12
2023-08-27T15:19:29.599Z,19.10
2023-08-27T15:21:57.278Z,19.06
2023-08-27T15:24:25.389Z,19.01
2023-08-27T15:26:54.416Z,18.96
2023-08-27T15:29:22.154Z,18.94
2023-08-27T15:31:50.241Z,18.92
2023-08-27T15:34:17.928Z,18.87
2023-08-27T15:36:45.599Z,18.82
2023-08-27T15:39:13.330Z,18.78
2023-08-27T15:41:41.935Z,18.77
2023-08-27T15:44:11.098Z,18.72
2023-08-27T15:46:39.486Z,18.69
2023-08-27T15:49:07.488Z,18.68
2023-08-27T15:51:35.832Z,18.66
2023-08-27T15:54:03.561Z,18.59
2023-08-27T15:56:31.653Z,18.51
2023-08-27T15:58:59.325Z,18.42
2023-08-27T16:01:29.025Z,18.40
2023-08-27T16:03:56.969Z,18.38
2023-08-27T16:06:25.136Z,18.37
2023-08-27T16:08:54.756Z,18.32
2023-08-27T16:11:23.140Z,18.22
2023-08-27T16:13:50.832Z,18.15
2023-08-27T16:16:19.651Z,18.13
2023-08-27T16:18:49.679Z,18.13
2023-08-27T16:21:17.734Z,18.10
2023-08-27T16:23:46.493Z,18.05
2023-08-27T16:26:14.675Z,18.01
2023-08-27T16:28:42.535Z,17.98
2023-08-27T16:31:18.935Z,17.95
2023-08-27T16:33:46.807Z,17.95
2023-08-27T16:36:16.505Z,17.91
2023-08-27T16:38:44.368Z,17.89
2023-08-27T16:41:12.798Z,17.91
2023-08-27T16:43:41.253Z,17.85
2023-08-27T16:46:09.019Z,17.89
2023-08-27T16:48:37.187Z,17.84
2023-08-27T16:51:06.820Z,17.85
2023-08-27T16:53:36.321Z,17.79
2023-08-27T16:56:04.050Z,17.75
2023-08-27T16:58:32.142Z,17.72
2023-08-27T17:00:59.887Z,17.73
2023-08-27T17:03:27.999Z,17.75
2023-08-27T17:05:58.251Z,17.76
2023-08-27T17:08:26.729Z,17.73
2023-08-27T17:10:55.881Z,17.73
2023-08-27T17:13:24.041Z,17.69
2023-08-27T17:15:51.889Z,17.65
2023-08-27T17:18:20.049Z,17.62
2023-08-27T17:20:50.576Z,17.58
2023-08-27T17:23:19.104Z,17.53
2023-08-27T17:25:46.830Z,17.49
2023-08-27T17:28:16.226Z,17.47
2023-08-27T17:30:44.044Z,17.51
2023-08-27T17:33:13.013Z,17.47
2023-08-27T17:35:41.362Z,17.48
2023-08-27T17:38:09.533Z,17.44
2023-08-27T17:40:38.184Z,17.39
2023-08-27T17:43:06.273Z,17.36
2023-08-27T17:45:35.375Z,17.34
2023-08-27T17:48:08.208Z,17.35
2023-08-27T17:50:36.532Z,17.35
2023-08-27T17:53:05.127Z,17.41
2023-08-27T17:55:33.559Z,17.44
2023-08-27T17:58:03.184Z,17.39
2023-08-27T18:00:31.755Z,17.34
2023-08-27T18:03:01.025Z,17.32
2023-08-27T18:05:29.180Z,17.30
2023-08-27T18:07:57.120Z,17.31
2023-08-27T18:10:25.358Z,17.31
2023-08-27T18:12:53.040Z,17.31
2023-08-27T18:15:21.099Z,17.33
2023-08-27T18:17:48.921Z,17.33
2023-08-27T18:20:18.558Z,17.31
2023-08-27T18:22:46.454Z,17.25
2023-08-27T18:25:14.600Z,17.19
2023-08-27T18:27:42.351Z,17.16
2023-08-27T18:30:11.059Z,17.17
2023-08-27T18:32:43.913Z,17.18
2023-08-27T18:35:12.121Z,17.21
2023-08-27T18:37:43.072Z,17.19
2023-08-27T18:40:11.840Z,17.19
2023-08-27T18:42:39.525Z,17.16
2023-08-27T18:45:08.873Z,17.13
2023-08-27T18:47:36.716Z,17.18
2023-08-27T18:50:05.576Z,17.12
2023-08-27T18:52:33.355Z,17.05
2023-08-27T18:55:03.561Z,17.08
2023-08-27T18:57:33.020Z,17.09
2023-08-27T19:00:00.766Z,17.05
2023-08-27T19:02:28.947Z,17.05
2023-08-27T19:04:56.699Z,17.09
2023-08-27T19:07:24.858Z,17.07
2023-08-27T19:09:53.025Z,17.04
2023-08-27T19:12:22.163Z,17.04
2023-08-27T19:14:49.997Z,17.04
2023-08-27T19:17:17.860Z,17.06
2023-08-27T19:19:45.770Z,17.00
2023-08-27T19:22:13.877Z,17.00
2023-08-27T19:24:44.126Z,16.96
2023-08-27T19:27:12.267Z,16.97
2023-08-27T19:29:41.373Z,16.98
2023-08-27T19:32:11.363Z,17.00
2023-08-27T19:34:39.146Z,17.05
2023-08-27T19:37:08.016Z,17.03
2023-08-27T19:39:35.782Z,17.02
2023-08-27T19:42:03.575Z,17.03
2023-08-27T19:44:31.349Z,17.01
2023-08-27T19:47:00.427Z,17.00
2023-08-27T19:49:28.516Z,17.02
2023-08-27T19:51:56.228Z,17.10
2023-08-27T19:54:25.076Z,17.09
2023-08-27T19:56:52.790Z,17.09
2023-08-27T19:59:20.937Z,17.03
2023-08-27T20:01:49.102Z,16.99
2023-08-27T20:04:18.856Z,16.95
2023-08-27T20:06:46.638Z,16.93
2023-08-27T20:09:14.708Z,16.97
2023-08-27T20:11:43.211Z,16.98
2023-08-27T20:14:11.280Z,16.99
2023-08-27T20:16:39.075Z,17.00
2023-08-27T20:19:07.095Z,16.97
2023-08-27T20:21:36.179Z,16.91
2023-08-27T20:24:04.786Z,16.91
2023-08-27T20:26:32.513Z,16.93
2023-08-27T20:29:00.572Z,16.96
2023-08-27T20:31:28.366Z,16.95
2023-08-27T20:33:57.348Z,16.95
2023-08-27T20:36:25.527Z,16.95
2023-08-27T20:38:55.061Z,16.98
2023-08-27T20:41:22.805Z,16.96
2023-08-27T20:43:52.578Z,16.95
2023-08-27T20:46:20.780Z,16.94
2023-08-27T20:48:48.938Z,16.91
2023-08-27T20:51:16.669Z,16.92
2023-08-27T20:53:44.979Z,16.91
2023-08-27T20:56:14.395Z,16.90
2023-08-27T20:58:42.381Z,16.89
2023-08-27T21:01:11.398Z,16.92
2023-08-27T21:03:39.375Z,16.95
2023-08-27T21:06:07.791Z,17.00
2023-08-27T21:08:35.573Z,17.00
2023-08-27T21:11:09.695Z,16.98
2023-08-27T21:13:38.887Z,16.97
2023-08-27T21:16:07.146Z,16.99
2023-08-27T21:18:35.064Z,17.03
2023-08-27T21:21:03.472Z,17.05
2023-08-27T21:23:31.194Z,17.03
2023-08-27T21:26:00.321Z,17.05
2023-08-27T21:28:28.707Z,17.03
2023-08-27T21:31:05.260Z,17.06
2023-08-27T21:33:42.122Z,17.08
2023-08-27T21:36:10.634Z,17.06
2023-08-27T21:38:38.449Z,17.04
2023-08-27T21:41:06.763Z,17.06
2023-08-27T21:43:34.451Z,17.09
2023-08-27T21:46:04.068Z,17.09
2023-08-27T21:48:32.013Z,17.09
2023-08-27T21:51:01.646Z,17.17
2023-08-27T21:53:29.406Z,17.13
2023-08-27T21:55:57.639Z,17.15
2023-08-27T21:58:25.956Z,17.12
2023-08-27T22:00:54.410Z,17.10
2023-08-27T22:03:25.608Z,17.09
2023-08-27T22:05:53.936Z,17.06
2023-08-27T22:08:21.583Z,17.08
2023-08-27T22:10:53.919Z,17.11
2023-08-27T22:13:21.762Z,17.16
2023-08-27T22:15:51.264Z,17.23
2023-08-27T22:18:19.566Z,17.14
2023-08-27T22:20:48.865Z,17.19
2023-08-27T22:23:16.908Z,17.13
2023-08-27T22:25:45.318Z,17.13
2023-08-27T22:28:13.454Z,17.15
2023-08-27T22:30:41.224Z,17.14
2023-08-27T22:33:09.453Z,17.06
2023-08-27T22:35:37.234Z,17.08
2023-08-27T22:38:06.762Z,17.09
2023-08-27T22:40:34.509Z,17.13
2023-08-27T22:43:02.759Z,17.14
2023-08-27T22:45:30.730Z,17.17
2023-08-27T22:47:58.896Z,17.14
2023-08-27T22:50:26.681Z,17.15
2023-08-27T22:52:55.372Z,17.09
2023-08-27T22:55:24.375Z,17.08
2023-08-27T22:57:52.615Z,17.13
2023-08-27T23:00:20.547Z,17.10
2023-08-27T23:02:48.742Z,17.03
2023-08-27T23:05:16.486Z,17.01
2023-08-27T23:07:44.610Z,17.10
2023-08-27T23:10:12.392Z,17.10
2023-08-27T23:12:41.847Z,17.10
2023-08-27T23:15:10.845Z,17.11
2023-08-27T23:17:39.282Z,17.17
2023-08-27T23:20:09.480Z,17.13
2023-08-27T23:22:39.009Z,17.10
2023-08-27T23:25:09.142Z,17.04
2023-08-27T23:27:36.997Z,17.02
2023-08-27T23:30:07.569Z,17.05
2023-08-27T23:32:35.401Z,17.01
2023-08-27T23:35:04.069Z,16.98
2023-08-27T23:37:32.195Z,16.97
2023-08-27T23:40:00.438Z,16.97
2023-08-27T23:42:28.128Z,16.94
2023-08-27T23:45:01.095Z,16.95
2023-08-27T23:47:30.504Z,16.89
2023-08-27T23:49:58.240Z,16.85
2023-08-27T23:52:25.954Z,16.88
2023-08-27T23:54:54.296Z,16.85
2023-08-27T23:57:22.057Z,16.80
2023-08-27T23:59:50.228Z,16.84
